This is the latest recevied weather packets stored in our database for station/object N4PWG. If no packets are shown the sender has not sent any weather packets the latest 10 day(s).
| Time | Temp. | Humidity | Pressure | Rain* | Wind** | Luminosity | Snow |
|---|---|---|---|---|---|---|---|
| 1777661361 | 17.78° C | 40% | 1034.7 hPa | 0 mm | - | 665 W/m² | - |
| 1777661058 | 18.33° C | 37% | 1034.4 hPa | 0 mm | - | 497 W/m² | - |
| 1777660753 | 17.78° C | 38% | 1034.7 hPa | 0 mm | - | 606 W/m² | - |
| 1777660450 | 18.33° C | 41% | 1035 hPa | 0 mm | - | 654 W/m² | - |
| 1777660147 | 17.78° C | 41% | 1034.5 hPa | 0 mm | - | 701 W/m² | - |
| 1777659844 | 17.78° C | 43% | 1034.5 hPa | 0 mm | - | 690 W/m² | - |
| 1777659540 | 18.89° C | 45% | 1034.7 hPa | 0 mm | - | 608 W/m² | - |
| 1777659237 | 17.78° C | 43% | 1034.8 hPa | 0 mm | - | 740 W/m² | - |
| 1777658935 | 17.78° C | 43% | 1034.7 hPa | 0 mm | - | 706 W/m² | - |
| 1777658631 | 17.22° C | 43% | 1034.4 hPa | 0 mm | - | 734 W/m² | - |
| 1777658328 | 17.78° C | 43% | 1034.5 hPa | 0 mm | - | 720 W/m² | - |
| 1777658024 | 17.22° C | 37% | 1034.7 hPa | 0 mm | - | 720 W/m² | - |
| 1777657722 | 17.22° C | 44% | 1034.7 hPa | 0 mm | - | 733 W/m² | - |
| 1777657419 | 17.22° C | 46% | 1034.9 hPa | 0 mm | - | 737 W/m² | - |
| 1777657117 | 17.78° C | 43% | 1034.9 hPa | 0 mm | - | 724 W/m² | - |
| 1777656814 | 17.22° C | 43% | 1034.8 hPa | 0 mm | - | 717 W/m² | - |
| 1777656509 | 17.22° C | 43% | 1034.8 hPa | 0 mm | - | 706 W/m² | - |
| 1777656205 | 17.22° C | 47% | 1034.8 hPa | 0 mm | - | 737 W/m² | - |
| 1777655900 | 17.22° C | 42% | 1034.7 hPa | 0 mm | - | 741 W/m² | - |
| 1777655601 | 17.78° C | 44% | 1035.2 hPa | 0 mm | - | 689 W/m² | - |
| 1777655294 | 16.67° C | 44% | 1034.8 hPa | 0 mm | - | 660 W/m² | - |
| 1777654991 | 16.67° C | 46% | 1034.9 hPa | 0 mm | - | 609 W/m² | - |
| 1777654689 | 16.67° C | 46% | 1035.1 hPa | 0 mm | - | 688 W/m² | - |
| 1777654386 | 16.67° C | 47% | 1034.9 hPa | 0 mm | - | 705 W/m² | - |
| 1777654084 | 16.67° C | 47% | 1035.2 hPa | 0 mm | - | 661 W/m² | - |
* Rain latest hour (hover to see other rain measurements)
** Current wind speed in m/s (hover to see current wind gust speed)